createdAt,value
2023-02-25T00:00:11.009Z,99417.31
2023-02-25T00:03:15.404Z,99403.31
2023-02-25T00:06:19.365Z,99421.91
2023-02-25T00:09:22.069Z,99437.59
2023-02-25T00:12:24.666Z,99427.88
2023-02-25T00:15:27.377Z,99427.47
2023-02-25T00:18:30.944Z,99428.78
2023-02-25T00:21:34.894Z,99431.88
2023-02-25T00:24:37.505Z,99433.41
2023-02-25T00:27:40.095Z,99441.63
2023-02-25T00:30:43.468Z,99444.78
2023-02-25T00:33:46.600Z,99445.41
2023-02-25T00:36:50.678Z,99450.25
2023-02-25T00:39:53.361Z,99452.94
2023-02-25T00:42:55.945Z,99456.06
2023-02-25T00:45:59.842Z,99462.22
2023-02-25T00:49:02.587Z,99456.66
2023-02-25T00:52:07.384Z,99469.41
2023-02-25T00:55:10.819Z,99470.25
2023-02-25T00:58:13.416Z,99471.66
2023-02-25T01:01:18.997Z,99471.50
2023-02-25T01:04:22.181Z,99472.69
2023-02-25T01:07:26.295Z,99476.44
2023-02-25T01:10:29.362Z,99483.47
2023-02-25T01:13:31.956Z,99490.59
2023-02-25T01:16:36.172Z,99487.59
2023-02-25T01:19:38.881Z,99493.91
2023-02-25T01:22:42.856Z,99501.69
2023-02-25T01:25:45.437Z,99497.81
2023-02-25T01:28:48.017Z,99506.66
2023-02-25T01:31:53.155Z,99512.00
2023-02-25T01:34:56.520Z,99511.66
2023-02-25T01:38:00.496Z,99525.38
2023-02-25T01:41:04.048Z,99523.31
2023-02-25T01:44:10.339Z,99521.47
2023-02-25T01:47:21.155Z,99528.44
2023-02-25T01:50:26.366Z,99538.66
2023-02-25T01:53:34.344Z,99527.09
2023-02-25T01:56:39.603Z,99531.16
2023-02-25T01:59:43.982Z,99538.59
2023-02-25T02:02:49.282Z,99552.78
2023-02-25T02:06:00.768Z,99549.03
2023-02-25T02:09:07.409Z,99546.63
2023-02-25T02:12:10.006Z,99554.19
2023-02-25T02:15:15.313Z,99566.09
2023-02-25T02:18:19.131Z,99567.81
2023-02-25T02:21:41.524Z,99567.13
2023-02-25T02:25:29.605Z,99576.38
2023-02-25T02:29:04.634Z,99579.38
2023-02-25T02:32:16.240Z,99582.59
2023-02-25T02:35:23.247Z,99587.13
2023-02-25T02:38:34.688Z,99592.59
2023-02-25T02:41:40.936Z,99593.34
2023-02-25T02:44:53.103Z,99591.72
2023-02-25T02:48:01.341Z,99595.28
2023-02-25T02:51:10.340Z,99594.78
2023-02-25T02:54:15.573Z,99607.41
2023-02-25T02:57:22.299Z,99623.41
2023-02-25T03:00:28.275Z,99618.78
2023-02-25T03:03:38.291Z,99627.84
2023-02-25T03:06:44.371Z,99632.09
2023-02-25T03:09:50.326Z,99643.13
2023-02-25T03:12:53.009Z,99645.09
2023-02-25T03:15:56.830Z,99646.53
2023-02-25T03:19:07.477Z,99651.69
2023-02-25T03:22:14.287Z,99663.41
2023-02-25T03:25:21.960Z,99666.19
2023-02-25T03:28:31.481Z,99667.38
2023-02-25T03:31:38.359Z,99680.84
2023-02-25T03:34:45.357Z,99677.13
2023-02-25T03:37:51.684Z,99679.41
2023-02-25T03:40:57.069Z,99690.44
2023-02-25T03:44:00.529Z,99679.06
2023-02-25T03:47:05.362Z,99686.19
2023-02-25T03:50:13.356Z,99695.50
2023-02-25T03:53:15.984Z,99709.50
2023-02-25T03:56:18.642Z,99716.94
2023-02-25T03:59:23.789Z,99719.50
2023-02-25T04:02:29.334Z,99708.28
2023-02-25T04:05:33.576Z,99713.28
2023-02-25T04:08:36.140Z,99717.22
2023-02-25T04:11:38.721Z,99723.28
2023-02-25T04:14:41.337Z,99717.78
2023-02-25T04:17:45.105Z,99727.59
2023-02-25T04:20:49.046Z,99739.88
2023-02-25T04:23:51.644Z,99735.53
2023-02-25T04:26:58.237Z,99753.09
2023-02-25T04:30:01.144Z,99752.06
2023-02-25T04:33:04.067Z,99758.53
2023-02-25T04:36:23.344Z,99767.28
2023-02-25T04:39:26.272Z,99754.88
2023-02-25T04:42:28.886Z,99753.53
2023-02-25T04:45:31.475Z,99756.22
2023-02-25T04:48:34.024Z,99760.66
2023-02-25T04:51:39.644Z,99763.22
2023-02-25T04:54:42.441Z,99758.59
2023-02-25T04:57:45.007Z,99753.00
2023-02-25T05:00:49.234Z,99759.50
2023-02-25T05:03:56.697Z,99773.94
2023-02-25T05:07:00.718Z,99767.97
2023-02-25T05:10:03.333Z,99760.47
2023-02-25T05:13:05.940Z,99763.06
2023-02-25T05:16:11.902Z,99763.53
2023-02-25T05:19:17.269Z,99773.91
2023-02-25T05:22:22.112Z,99773.44
2023-02-25T05:25:25.049Z,99776.56
2023-02-25T05:28:27.724Z,99777.78
2023-02-25T05:31:30.396Z,99782.56
2023-02-25T05:34:33.093Z,99786.03
2023-02-25T05:37:37.126Z,99788.59
2023-02-25T05:40:39.809Z,99788.88
2023-02-25T05:43:42.971Z,99796.53
2023-02-25T05:46:45.576Z,99795.47
2023-02-25T05:49:48.244Z,99797.28
2023-02-25T05:52:52.175Z,99805.53
2023-02-25T05:55:55.659Z,99811.41
2023-02-25T05:58:58.279Z,99815.03
2023-02-25T06:02:00.949Z,99820.31
2023-02-25T06:05:04.097Z,99821.00
2023-02-25T06:08:08.720Z,99831.69
2023-02-25T06:11:14.540Z,99836.13
2023-02-25T06:14:17.424Z,99838.72
2023-02-25T06:17:20.016Z,99855.13
2023-02-25T06:20:25.139Z,99860.31
2023-02-25T06:23:29.073Z,99858.09
2023-02-25T06:26:31.809Z,99872.41
2023-02-25T06:29:34.382Z,99868.88
2023-02-25T06:32:37.213Z,99870.28
2023-02-25T06:35:39.931Z,99879.44
2023-02-25T06:38:46.048Z,99884.59
2023-02-25T06:41:49.406Z,99892.44
2023-02-25T06:44:51.984Z,99902.63
2023-02-25T06:47:54.588Z,99904.50
2023-02-25T06:50:57.182Z,99910.78
2023-02-25T06:54:04.507Z,99917.47
2023-02-25T06:57:07.105Z,99923.63
2023-02-25T07:00:10.895Z,99931.97
2023-02-25T07:03:13.750Z,99940.09
2023-02-25T07:06:16.343Z,99951.59
2023-02-25T07:09:20.271Z,99958.47
2023-02-25T07:12:22.879Z,99958.50
2023-02-25T07:15:25.471Z,99958.66
2023-02-25T07:18:28.063Z,99965.38
2023-02-25T07:21:33.695Z,99969.50
2023-02-25T07:24:37.980Z,99964.59
2023-02-25T07:27:44.169Z,99964.09
2023-02-25T07:30:47.508Z,99973.00
2023-02-25T07:33:50.357Z,99980.59
2023-02-25T07:36:53.016Z,99983.09
2023-02-25T07:39:59.604Z,99990.66
2023-02-25T07:43:03.602Z,100003.09
2023-02-25T07:46:06.794Z,100001.81
2023-02-25T07:49:09.395Z,100003.09
2023-02-25T07:52:12.026Z,100007.47
2023-02-25T07:55:15.999Z,100010.81
2023-02-25T07:58:18.606Z,100030.50
2023-02-25T08:01:24.617Z,100028.84
2023-02-25T08:04:29.908Z,100029.72
2023-02-25T08:07:32.583Z,100045.44
2023-02-25T08:10:37.711Z,100046.09
2023-02-25T08:13:41.317Z,100047.00
2023-02-25T08:16:43.890Z,100062.75
2023-02-25T08:19:46.497Z,100059.81
2023-02-25T08:22:49.129Z,100073.41
2023-02-25T08:25:55.897Z,100078.63
2023-02-25T08:28:58.746Z,100087.75
2023-02-25T08:32:01.494Z,100095.47
2023-02-25T08:35:05.289Z,100101.28
2023-02-25T08:38:08.645Z,100114.97
2023-02-25T08:41:13.294Z,100114.03
2023-02-25T08:44:16.041Z,100111.13
2023-02-25T08:47:18.846Z,100109.91
2023-02-25T08:50:23.743Z,100109.88
2023-02-25T08:53:26.330Z,100120.75
2023-02-25T08:56:30.611Z,100125.16
2023-02-25T08:59:35.884Z,100112.69
2023-02-25T09:02:39.829Z,100128.19
2023-02-25T09:05:42.408Z,100137.84
2023-02-25T09:08:45.005Z,100140.25
2023-02-25T09:11:49.990Z,100148.28
2023-02-25T09:14:52.704Z,100151.28
2023-02-25T09:17:55.283Z,100160.84
2023-02-25T09:20:57.871Z,100168.63
2023-02-25T09:24:00.684Z,100181.41
2023-02-25T09:27:07.830Z,100195.94
2023-02-25T09:30:11.466Z,100202.88
2023-02-25T09:33:14.122Z,100196.00
2023-02-25T09:36:19.289Z,100207.75
2023-02-25T09:39:21.850Z,100208.56
2023-02-25T09:42:28.292Z,100217.53
2023-02-25T09:45:33.862Z,100220.53
2023-02-25T09:48:41.557Z,100218.34
2023-02-25T09:51:48.380Z,100229.91
2023-02-25T09:54:56.602Z,100234.28
2023-02-25T09:58:07.380Z,100241.97
2023-02-25T10:01:19.178Z,100246.13
2023-02-25T10:04:30.816Z,100248.19
2023-02-25T10:07:37.033Z,100253.66
2023-02-25T10:10:46.651Z,100259.97
2023-02-25T10:13:57.379Z,100257.13
2023-02-25T10:17:07.332Z,100262.25
2023-02-25T10:20:34.840Z,100261.53
2023-02-25T10:23:52.041Z,100265.34
2023-02-25T10:26:59.445Z,100275.13
2023-02-25T10:30:07.712Z,100277.41
2023-02-25T10:33:17.523Z,100290.75
2023-02-25T10:36:25.553Z,100295.78
2023-02-25T10:39:31.204Z,100289.09
2023-02-25T10:42:34.996Z,100303.16
2023-02-25T10:45:41.294Z,100309.59
2023-02-25T10:48:48.517Z,100317.56
2023-02-25T10:52:15.318Z,100317.19
2023-02-25T10:55:27.626Z,100324.84
2023-02-25T10:58:37.904Z,100332.19
2023-02-25T11:01:43.785Z,100336.00
2023-02-25T11:04:46.942Z,100340.00
2023-02-25T11:07:49.932Z,100347.38
2023-02-25T11:11:02.915Z,100361.03
2023-02-25T11:14:07.290Z,100366.94
2023-02-25T11:17:20.223Z,100364.44
2023-02-25T11:20:25.855Z,100361.25
2023-02-25T11:23:33.380Z,100376.16
2023-02-25T11:26:39.251Z,100365.25
2023-02-25T11:29:44.724Z,100378.25
2023-02-25T11:32:53.742Z,100377.09
2023-02-25T11:35:59.753Z,100378.72
2023-02-25T11:39:09.009Z,100380.06
2023-02-25T11:42:24.144Z,100383.47
2023-02-25T11:45:30.796Z,100388.06
2023-02-25T11:48:46.903Z,100389.91
2023-02-25T11:51:57.412Z,100388.63
2023-02-25T11:55:15.052Z,100387.75
2023-02-25T11:58:30.274Z,100395.16
2023-02-25T12:01:43.401Z,100407.69
2023-02-25T12:05:18.371Z,100415.94
2023-02-25T12:08:51.257Z,100404.44
2023-02-25T12:12:12.724Z,100414.66
2023-02-25T12:15:48.892Z,100418.72
2023-02-25T12:19:31.653Z,100425.44
2023-02-25T12:22:58.677Z,100416.09
2023-02-25T12:26:10.802Z,100418.19
2023-02-25T12:29:39.429Z,100416.94
2023-02-25T12:32:53.670Z,100416.31
2023-02-25T12:36:24.680Z,100425.31
2023-02-25T12:39:41.929Z,100425.31
2023-02-25T12:43:01.887Z,100438.09
2023-02-25T12:46:27.919Z,100430.19
2023-02-25T12:49:47.856Z,100427.25
2023-02-25T12:53:06.224Z,100438.94
2023-02-25T12:56:44.517Z,100429.84
2023-02-25T13:00:27.435Z,100453.72
2023-02-25T13:03:42.908Z,100442.94
2023-02-25T13:07:01.270Z,100438.72
2023-02-25T13:10:30.736Z,100453.84
2023-02-25T13:14:09.418Z,100454.47
2023-02-25T13:17:43.153Z,100450.03
2023-02-25T13:20:58.346Z,100462.03
2023-02-25T13:24:22.650Z,100465.13
2023-02-25T13:27:40.860Z,100473.72
2023-02-25T13:30:53.522Z,100464.75
2023-02-25T13:34:14.323Z,100456.09
2023-02-25T13:37:29.340Z,100470.09
2023-02-25T13:40:41.911Z,100466.84
2023-02-25T13:44:01.549Z,100485.09
2023-02-25T13:47:21.799Z,100491.59
2023-02-25T13:51:02.279Z,100489.59
2023-02-25T13:54:20.956Z,100488.97
2023-02-25T13:57:36.136Z,100491.56
2023-02-25T14:01:00.818Z,100498.91
2023-02-25T14:04:36.049Z,100496.84
2023-02-25T14:08:09.031Z,100494.81
2023-02-25T14:11:31.077Z,100500.16
2023-02-25T14:14:48.183Z,100518.50
2023-02-25T14:18:05.698Z,100511.06
2023-02-25T14:21:31.868Z,100529.53
2023-02-25T14:24:43.076Z,100536.72
2023-02-25T14:27:52.094Z,100548.69
2023-02-25T14:31:08.201Z,100551.28
2023-02-25T14:34:28.138Z,100556.09
2023-02-25T14:37:38.264Z,100562.41
2023-02-25T14:40:48.912Z,100568.53
2023-02-25T14:43:57.210Z,100569.28
2023-02-25T14:47:06.292Z,100577.88
2023-02-25T14:50:15.682Z,100582.19
2023-02-25T14:54:09.389Z,100582.94
2023-02-25T14:57:49.023Z,100598.56
2023-02-25T15:01:23.550Z,100608.38
2023-02-25T15:04:41.498Z,100615.84
2023-02-25T15:07:57.689Z,100607.91
2023-02-25T15:11:15.143Z,100626.03
2023-02-25T15:14:59.156Z,100621.00
2023-02-25T15:18:29.137Z,100631.47
2023-02-25T15:21:43.967Z,100636.75
2023-02-25T15:24:47.274Z,100645.91
2023-02-25T15:27:51.071Z,100651.94
2023-02-25T15:31:28.358Z,100656.22
2023-02-25T15:34:35.901Z,100654.69
2023-02-25T15:37:59.023Z,100661.47
2023-02-25T15:41:02.563Z,100665.00
2023-02-25T15:44:34.924Z,100670.59
2023-02-25T15:47:41.522Z,100665.22
2023-02-25T15:50:54.183Z,100670.47
2023-02-25T15:53:57.247Z,100669.25
2023-02-25T15:57:01.374Z,100678.31
2023-02-25T16:00:10.975Z,100687.03
2023-02-25T16:03:41.956Z,100680.56
2023-02-25T16:06:44.783Z,100693.09
2023-02-25T16:09:54.481Z,100699.69
2023-02-25T16:12:58.587Z,100693.84
2023-02-25T16:16:03.959Z,100700.41
2023-02-25T16:19:10.580Z,100702.19
2023-02-25T16:22:17.346Z,100708.19
2023-02-25T16:25:27.232Z,100709.03
2023-02-25T16:28:44.088Z,100722.00
2023-02-25T16:31:51.912Z,100723.69
2023-02-25T16:34:59.826Z,100727.34
2023-02-25T16:38:10.150Z,100735.97
2023-02-25T16:41:13.936Z,100739.25
2023-02-25T16:44:20.053Z,100739.72
2023-02-25T16:47:26.514Z,100745.72
2023-02-25T16:50:33.037Z,100747.94
2023-02-25T16:53:35.696Z,100765.03
2023-02-25T16:56:38.593Z,100760.66
2023-02-25T16:59:41.176Z,100766.25
2023-02-25T17:02:46.357Z,100773.59
2023-02-25T17:06:04.302Z,100783.44
2023-02-25T17:09:06.883Z,100787.00
2023-02-25T17:12:16.141Z,100791.13
2023-02-25T17:15:22.933Z,100794.91
2023-02-25T17:18:30.961Z,100797.47
2023-02-25T17:21:37.253Z,100796.69
2023-02-25T17:24:40.280Z,100805.31
2023-02-25T17:27:43.727Z,100809.81
2023-02-25T17:30:47.314Z,100810.91
2023-02-25T17:33:52.771Z,100824.59
2023-02-25T17:36:59.252Z,100820.16
2023-02-25T17:40:04.254Z,100824.00
2023-02-25T17:43:21.295Z,100838.69
2023-02-25T17:46:29.395Z,100835.25
2023-02-25T17:49:34.039Z,100836.97
2023-02-25T17:52:38.119Z,100842.19
2023-02-25T17:55:40.704Z,100849.13
2023-02-25T17:58:43.752Z,100851.72
2023-02-25T18:01:48.963Z,100849.22
2023-02-25T18:04:51.844Z,100866.66
2023-02-25T18:08:17.434Z,100860.50
2023-02-25T18:11:27.411Z,100871.25
2023-02-25T18:14:35.722Z,100873.84
2023-02-25T18:17:40.243Z,100870.38
2023-02-25T18:20:46.189Z,100874.06
2023-02-25T18:23:51.716Z,100881.53
2023-02-25T18:27:20.085Z,100883.94
2023-02-25T18:30:26.050Z,100893.25
2023-02-25T18:33:28.753Z,100901.47
2023-02-25T18:36:31.377Z,100897.06
2023-02-25T18:39:38.033Z,100909.38
2023-02-25T18:42:40.583Z,100896.22
2023-02-25T18:45:43.267Z,100906.59
2023-02-25T18:48:45.838Z,100916.97
2023-02-25T18:51:50.733Z,100915.41
2023-02-25T18:54:54.666Z,100908.34
2023-02-25T18:57:57.525Z,100922.00
2023-02-25T19:01:00.418Z,100918.13
2023-02-25T19:04:03.055Z,100921.91
2023-02-25T19:07:10.404Z,100927.84
2023-02-25T19:10:17.046Z,100933.16
2023-02-25T19:13:23.700Z,100943.81
2023-02-25T19:16:26.643Z,100948.16
2023-02-25T19:19:29.477Z,100946.47
2023-02-25T19:22:32.071Z,100943.63
2023-02-25T19:25:36.846Z,100955.84
2023-02-25T19:28:39.518Z,100951.47
2023-02-25T19:31:42.195Z,100958.50
2023-02-25T19:34:45.128Z,100960.38
2023-02-25T19:37:47.847Z,100973.56
2023-02-25T19:40:51.783Z,100984.97
2023-02-25T19:43:54.353Z,100994.66
2023-02-25T19:46:56.976Z,101009.72
2023-02-25T19:49:59.555Z,101020.41
2023-02-25T19:53:03.467Z,101015.19
2023-02-25T19:56:08.258Z,101022.22
2023-02-25T19:59:11.907Z,101018.69
2023-02-25T20:02:14.903Z,101015.19
2023-02-25T20:05:17.680Z,101014.28
2023-02-25T20:08:20.637Z,101003.72
2023-02-25T20:11:24.563Z,101009.78
2023-02-25T20:14:28.846Z,101014.09
2023-02-25T20:17:32.543Z,101014.94
2023-02-25T20:20:36.809Z,101021.91
2023-02-25T20:23:39.939Z,101027.19
2023-02-25T20:26:44.776Z,101037.63
2023-02-25T20:29:47.890Z,101040.16
2023-02-25T20:32:50.560Z,101041.09
2023-02-25T20:35:53.397Z,101041.97
2023-02-25T20:39:16.282Z,101046.31
2023-02-25T20:42:21.771Z,101041.06
2023-02-25T20:45:24.862Z,101042.00
2023-02-25T20:48:29.574Z,101040.25
2023-02-25T20:51:33.201Z,101045.44
2023-02-25T20:54:35.804Z,101055.13
2023-02-25T20:57:39.734Z,101055.97
2023-02-25T21:00:42.371Z,101067.31
2023-02-25T21:03:44.952Z,101070.81
2023-02-25T21:06:47.546Z,101072.56
2023-02-25T21:09:50.145Z,101077.78
2023-02-25T21:12:55.153Z,101076.88
2023-02-25T21:15:59.737Z,101076.88
2023-02-25T21:19:02.297Z,101076.06
2023-02-25T21:22:05.137Z,101085.66
2023-02-25T21:25:08.345Z,101089.13
2023-02-25T21:28:12.560Z,101093.53
2023-02-25T21:31:17.128Z,101079.53
2023-02-25T21:34:20.068Z,101088.25
2023-02-25T21:37:22.648Z,101088.31
2023-02-25T21:40:25.250Z,101090.91
2023-02-25T21:43:29.168Z,101098.81
2023-02-25T21:46:31.790Z,101101.41
2023-02-25T21:49:34.942Z,101101.41
2023-02-25T21:52:37.539Z,101103.19
2023-02-25T21:55:40.181Z,101101.44
2023-02-25T21:58:44.441Z,101111.03
2023-02-25T22:01:47.096Z,101100.56
2023-02-25T22:04:49.770Z,101105.81
2023-02-25T22:07:52.396Z,101107.56
2023-02-25T22:10:55.007Z,101111.03
2023-02-25T22:13:59.984Z,101110.16
2023-02-25T22:17:02.567Z,101117.19
2023-02-25T22:20:05.564Z,101131.13
2023-02-25T22:23:08.154Z,101135.56
2023-02-25T22:26:13.439Z,101137.28
2023-02-25T22:29:17.441Z,101137.28
2023-02-25T22:32:20.356Z,101146.88
2023-02-25T22:35:23.048Z,101152.97
2023-02-25T22:38:27.085Z,101149.50
2023-02-25T22:41:30.905Z,101157.31
2023-02-25T22:44:35.965Z,101160.84
2023-02-25T22:47:38.536Z,101165.19
2023-02-25T22:50:43.551Z,101171.28
2023-02-25T22:53:46.139Z,101175.69
2023-02-25T22:56:49.601Z,101172.16
2023-02-25T22:59:53.580Z,101184.34
2023-02-25T23:02:56.201Z,101180.88
2023-02-25T23:05:58.816Z,101194.00
2023-02-25T23:09:01.493Z,101199.22
2023-02-25T23:12:05.014Z,101207.06
2023-02-25T23:15:10.346Z,101206.19
2023-02-25T23:18:13.056Z,101214.03
2023-02-25T23:21:19.054Z,101212.28
2023-02-25T23:24:22.649Z,101221.03
2023-02-25T23:27:25.756Z,101215.78
2023-02-25T23:30:29.899Z,101231.50
2023-02-25T23:33:33.157Z,101230.63
2023-02-25T23:36:36.287Z,101228.84
2023-02-25T23:39:39.729Z,101231.47
2023-02-25T23:42:42.948Z,101239.34
2023-02-25T23:45:47.470Z,101245.44
2023-02-25T23:48:50.172Z,101257.63
2023-02-25T23:51:52.834Z,101266.38
2023-02-25T23:54:55.428Z,101275.09
2023-02-25T23:57:58.020Z,101266.38
